sensor_id;sensor_type;location;lat;lon;timestamp;P1;durP1;ratioP1;P2;durP2;ratioP2
73816;SDS011;62146;53.232;-1.304;2023-01-19T00:00:27;7.05;;;1.88;;
73816;SDS011;62146;53.232;-1.304;2023-01-19T00:02:54;6.78;;;1.70;;
73816;SDS011;62146;53.232;-1.304;2023-01-19T00:05:21;5.18;;;2.03;;
73816;SDS011;62146;53.232;-1.304;2023-01-19T00:07:48;5.77;;;1.50;;
73816;SDS011;62146;53.232;-1.304;2023-01-19T00:10:14;6.65;;;1.63;;
73816;SDS011;62146;53.232;-1.304;2023-01-19T00:12:41;6.80;;;2.00;;
73816;SDS011;62146;53.232;-1.304;2023-01-19T00:15:08;6.40;;;1.60;;
73816;SDS011;62146;53.232;-1.304;2023-01-19T00:17:35;5.32;;;1.48;;
73816;SDS011;62146;53.232;-1.304;2023-01-19T00:20:02;5.13;;;1.63;;
73816;SDS011;62146;53.232;-1.304;2023-01-19T00:22:29;5.82;;;1.88;;
73816;SDS011;62146;53.232;-1.304;2023-01-19T00:24:56;7.80;;;2.00;;
73816;SDS011;62146;53.232;-1.304;2023-01-19T00:27:22;7.00;;;2.35;;
73816;SDS011;62146;53.232;-1.304;2023-01-19T00:29:49;5.28;;;1.80;;
73816;SDS011;62146;53.232;-1.304;2023-01-19T00:32:16;6.60;;;1.80;;
73816;SDS011;62146;53.232;-1.304;2023-01-19T00:34:43;7.15;;;1.85;;
73816;SDS011;62146;53.232;-1.304;2023-01-19T00:37:15;5.40;;;1.60;;
73816;SDS011;62146;53.232;-1.304;2023-01-19T00:39:42;8.05;;;1.85;;
73816;SDS011;62146;53.232;-1.304;2023-01-19T00:42:12;6.13;;;1.95;;
73816;SDS011;62146;53.232;-1.304;2023-01-19T00:44:57;6.63;;;2.00;;
73816;SDS011;62146;53.232;-1.304;2023-01-19T00:47:24;7.03;;;2.17;;
73816;SDS011;62146;53.232;-1.304;2023-01-19T00:49:50;7.13;;;2.10;;
73816;SDS011;62146;53.232;-1.304;2023-01-19T00:52:17;6.00;;;1.90;;
73816;SDS011;62146;53.232;-1.304;2023-01-19T00:54:44;8.77;;;2.00;;
73816;SDS011;62146;53.232;-1.304;2023-01-19T00:57:10;5.87;;;1.63;;
73816;SDS011;62146;53.232;-1.304;2023-01-19T00:59:37;7.13;;;1.90;;
73816;SDS011;62146;53.232;-1.304;2023-01-19T01:02:04;6.18;;;1.90;;
73816;SDS011;62146;53.232;-1.304;2023-01-19T01:04:31;6.63;;;2.10;;
73816;SDS011;62146;53.232;-1.304;2023-01-19T01:06:57;7.00;;;2.13;;
73816;SDS011;62146;53.232;-1.304;2023-01-19T01:09:24;5.87;;;2.03;;
73816;SDS011;62146;53.232;-1.304;2023-01-19T01:11:51;7.25;;;1.88;;
73816;SDS011;62146;53.232;-1.304;2023-01-19T01:14:18;6.80;;;1.85;;
73816;SDS011;62146;53.232;-1.304;2023-01-19T01:16:44;6.90;;;2.25;;
73816;SDS011;62146;53.232;-1.304;2023-01-19T01:19:11;6.97;;;2.33;;
73816;SDS011;62146;53.232;-1.304;2023-01-19T01:21:37;8.73;;;2.30;;
73816;SDS011;62146;53.232;-1.304;2023-01-19T01:24:04;7.80;;;2.28;;
73816;SDS011;62146;53.232;-1.304;2023-01-19T01:26:31;7.75;;;2.20;;
73816;SDS011;62146;53.232;-1.304;2023-01-19T01:28:57;6.82;;;2.42;;
73816;SDS011;62146;53.232;-1.304;2023-01-19T01:31:24;8.15;;;2.85;;
73816;SDS011;62146;53.232;-1.304;2023-01-19T01:33:51;7.10;;;2.30;;
73816;SDS011;62146;53.232;-1.304;2023-01-19T01:36:17;6.72;;;2.40;;
73816;SDS011;62146;53.232;-1.304;2023-01-19T01:38:44;6.88;;;2.65;;
73816;SDS011;62146;53.232;-1.304;2023-01-19T01:41:11;7.78;;;2.38;;
73816;SDS011;62146;53.232;-1.304;2023-01-19T01:43:56;8.40;;;2.50;;
73816;SDS011;62146;53.232;-1.304;2023-01-19T01:46:24;6.03;;;2.33;;
73816;SDS011;62146;53.232;-1.304;2023-01-19T01:51:36;5.78;;;2.38;;
73816;SDS011;62146;53.232;-1.304;2023-01-19T01:56:38;7.28;;;2.35;;
73816;SDS011;62146;53.232;-1.304;2023-01-19T01:59:10;8.63;;;2.40;;
73816;SDS011;62146;53.232;-1.304;2023-01-19T02:01:55;8.25;;;2.47;;
73816;SDS011;62146;53.232;-1.304;2023-01-19T02:04:43;6.93;;;2.72;;
73816;SDS011;62146;53.232;-1.304;2023-01-19T02:07:14;7.93;;;2.30;;
73816;SDS011;62146;53.232;-1.304;2023-01-19T02:10:04;6.40;;;2.50;;
73816;SDS011;62146;53.232;-1.304;2023-01-19T02:12:49;5.77;;;2.30;;
73816;SDS011;62146;53.232;-1.304;2023-01-19T02:15:35;5.95;;;2.33;;
73816;SDS011;62146;53.232;-1.304;2023-01-19T02:18:01;7.43;;;2.60;;
73816;SDS011;62146;53.232;-1.304;2023-01-19T02:20:28;6.85;;;2.40;;
73816;SDS011;62146;53.232;-1.304;2023-01-19T02:22:57;7.70;;;2.85;;
73816;SDS011;62146;53.232;-1.304;2023-01-19T02:25:28;6.67;;;2.33;;
73816;SDS011;62146;53.232;-1.304;2023-01-19T02:27:56;6.50;;;2.40;;
73816;SDS011;62146;53.232;-1.304;2023-01-19T02:30:22;8.60;;;2.60;;
73816;SDS011;62146;53.232;-1.304;2023-01-19T02:32:49;7.75;;;2.65;;
73816;SDS011;62146;53.232;-1.304;2023-01-19T02:35:16;7.35;;;2.55;;
73816;SDS011;62146;53.232;-1.304;2023-01-19T02:37:42;9.60;;;2.60;;
73816;SDS011;62146;53.232;-1.304;2023-01-19T02:40:10;7.85;;;2.22;;
73816;SDS011;62146;53.232;-1.304;2023-01-19T02:42:41;5.88;;;2.60;;
73816;SDS011;62146;53.232;-1.304;2023-01-19T02:45:11;9.20;;;2.83;;
73816;SDS011;62146;53.232;-1.304;2023-01-19T02:47:42;7.60;;;2.40;;
73816;SDS011;62146;53.232;-1.304;2023-01-19T03:02:22;7.53;;;2.50;;
73816;SDS011;62146;53.232;-1.304;2023-01-19T03:07:32;8.45;;;2.63;;
73816;SDS011;62146;53.232;-1.304;2023-01-19T03:13:25;4.68;;;1.65;;
73816;SDS011;62146;53.232;-1.304;2023-01-19T03:15:56;6.40;;;2.28;;
73816;SDS011;62146;53.232;-1.304;2023-01-19T03:18:31;6.63;;;2.20;;
73816;SDS011;62146;53.232;-1.304;2023-01-19T03:21:02;8.23;;;2.30;;
73816;SDS011;62146;53.232;-1.304;2023-01-19T03:23:32;9.68;;;2.10;;
73816;SDS011;62146;53.232;-1.304;2023-01-19T03:26:02;7.45;;;2.30;;
73816;SDS011;62146;53.232;-1.304;2023-01-19T03:28:33;6.07;;;2.05;;
73816;SDS011;62146;53.232;-1.304;2023-01-19T03:31:05;5.80;;;2.30;;
73816;SDS011;62146;53.232;-1.304;2023-01-19T03:33:48;4.43;;;1.90;;
73816;SDS011;62146;53.232;-1.304;2023-01-19T03:36:23;5.60;;;2.28;;
73816;SDS011;62146;53.232;-1.304;2023-01-19T03:39:11;6.60;;;2.40;;
73816;SDS011;62146;53.232;-1.304;2023-01-19T03:41:42;5.22;;;2.10;;
73816;SDS011;62146;53.232;-1.304;2023-01-19T03:44:13;7.73;;;2.20;;
73816;SDS011;62146;53.232;-1.304;2023-01-19T03:46:40;4.70;;;1.90;;
73816;SDS011;62146;53.232;-1.304;2023-01-19T03:49:07;7.05;;;2.38;;
73816;SDS011;62146;53.232;-1.304;2023-01-19T03:51:35;8.32;;;2.30;;
73816;SDS011;62146;53.232;-1.304;2023-01-19T03:54:03;6.57;;;2.05;;
73816;SDS011;62146;53.232;-1.304;2023-01-19T03:56:30;4.97;;;1.87;;
73816;SDS011;62146;53.232;-1.304;2023-01-19T03:58:57;5.20;;;1.77;;
73816;SDS011;62146;53.232;-1.304;2023-01-19T04:01:24;5.90;;;2.13;;
73816;SDS011;62146;53.232;-1.304;2023-01-19T04:03:51;9.68;;;2.30;;
73816;SDS011;62146;53.232;-1.304;2023-01-19T04:06:19;4.50;;;1.85;;
73816;SDS011;62146;53.232;-1.304;2023-01-19T04:08:46;4.80;;;1.70;;
73816;SDS011;62146;53.232;-1.304;2023-01-19T04:11:14;8.57;;;1.90;;
73816;SDS011;62146;53.232;-1.304;2023-01-19T04:13:41;5.93;;;1.73;;
73816;SDS011;62146;53.232;-1.304;2023-01-19T04:16:08;4.72;;;1.80;;
73816;SDS011;62146;53.232;-1.304;2023-01-19T04:18:35;5.32;;;1.98;;
73816;SDS011;62146;53.232;-1.304;2023-01-19T04:21:07;5.00;;;1.67;;
73816;SDS011;62146;53.232;-1.304;2023-01-19T04:23:34;8.35;;;1.88;;
73816;SDS011;62146;53.232;-1.304;2023-01-19T04:26:01;6.55;;;1.70;;
73816;SDS011;62146;53.232;-1.304;2023-01-19T04:28:29;4.97;;;1.98;;
73816;SDS011;62146;53.232;-1.304;2023-01-19T04:30:56;3.97;;;1.50;;
73816;SDS011;62146;53.232;-1.304;2023-01-19T04:33:23;5.17;;;1.80;;
73816;SDS011;62146;53.232;-1.304;2023-01-19T04:35:51;6.03;;;2.05;;
73816;SDS011;62146;53.232;-1.304;2023-01-19T04:38:19;7.05;;;1.73;;
73816;SDS011;62146;53.232;-1.304;2023-01-19T04:40:47;6.75;;;1.70;;
73816;SDS011;62146;53.232;-1.304;2023-01-19T04:43:15;4.43;;;1.90;;
73816;SDS011;62146;53.232;-1.304;2023-01-19T04:45:42;6.43;;;1.63;;
73816;SDS011;62146;53.232;-1.304;2023-01-19T04:48:12;5.22;;;1.88;;
73816;SDS011;62146;53.232;-1.304;2023-01-19T04:50:39;7.18;;;2.00;;
73816;SDS011;62146;53.232;-1.304;2023-01-19T04:53:08;7.07;;;1.60;;
73816;SDS011;62146;53.232;-1.304;2023-01-19T04:55:38;5.10;;;1.50;;
73816;SDS011;62146;53.232;-1.304;2023-01-19T04:58:05;6.07;;;1.80;;
73816;SDS011;62146;53.232;-1.304;2023-01-19T05:00:31;7.05;;;1.65;;
73816;SDS011;62146;53.232;-1.304;2023-01-19T05:02:58;5.30;;;1.95;;
73816;SDS011;62146;53.232;-1.304;2023-01-19T05:05:27;6.13;;;1.90;;
73816;SDS011;62146;53.232;-1.304;2023-01-19T05:07:53;5.65;;;1.80;;
73816;SDS011;62146;53.232;-1.304;2023-01-19T05:10:20;7.10;;;1.90;;
73816;SDS011;62146;53.232;-1.304;2023-01-19T05:12:47;5.28;;;1.60;;
73816;SDS011;62146;53.232;-1.304;2023-01-19T05:15:13;4.05;;;1.70;;
73816;SDS011;62146;53.232;-1.304;2023-01-19T05:17:40;7.47;;;2.10;;
73816;SDS011;62146;53.232;-1.304;2023-01-19T05:20:08;4.97;;;2.05;;
73816;SDS011;62146;53.232;-1.304;2023-01-19T05:22:36;5.13;;;1.77;;
73816;SDS011;62146;53.232;-1.304;2023-01-19T05:25:05;5.68;;;1.70;;
73816;SDS011;62146;53.232;-1.304;2023-01-19T05:27:34;5.88;;;2.22;;
73816;SDS011;62146;53.232;-1.304;2023-01-19T05:30:02;6.82;;;2.30;;
73816;SDS011;62146;53.232;-1.304;2023-01-19T05:32:30;5.75;;;2.03;;
73816;SDS011;62146;53.232;-1.304;2023-01-19T05:34:56;5.60;;;2.33;;
73816;SDS011;62146;53.232;-1.304;2023-01-19T05:37:23;6.20;;;1.80;;
73816;SDS011;62146;53.232;-1.304;2023-01-19T05:39:50;6.70;;;2.08;;
73816;SDS011;62146;53.232;-1.304;2023-01-19T05:42:16;6.00;;;2.15;;
73816;SDS011;62146;53.232;-1.304;2023-01-19T05:44:43;6.97;;;2.17;;
73816;SDS011;62146;53.232;-1.304;2023-01-19T05:47:09;6.33;;;2.13;;
73816;SDS011;62146;53.232;-1.304;2023-01-19T05:49:36;4.97;;;2.20;;
73816;SDS011;62146;53.232;-1.304;2023-01-19T05:52:03;5.05;;;2.17;;
73816;SDS011;62146;53.232;-1.304;2023-01-19T05:54:29;7.07;;;2.10;;
73816;SDS011;62146;53.232;-1.304;2023-01-19T05:56:56;5.30;;;2.33;;
73816;SDS011;62146;53.232;-1.304;2023-01-19T05:59:23;6.10;;;2.00;;
73816;SDS011;62146;53.232;-1.304;2023-01-19T06:01:50;6.97;;;2.10;;
73816;SDS011;62146;53.232;-1.304;2023-01-19T06:04:17;7.78;;;2.20;;
73816;SDS011;62146;53.232;-1.304;2023-01-19T06:06:48;5.47;;;2.03;;
73816;SDS011;62146;53.232;-1.304;2023-01-19T06:09:15;6.80;;;2.42;;
73816;SDS011;62146;53.232;-1.304;2023-01-19T06:11:43;9.80;;;2.60;;
73816;SDS011;62146;53.232;-1.304;2023-01-19T06:14:10;5.93;;;2.13;;
73816;SDS011;62146;53.232;-1.304;2023-01-19T06:16:37;7.72;;;2.70;;
73816;SDS011;62146;53.232;-1.304;2023-01-19T06:19:03;6.63;;;2.60;;
73816;SDS011;62146;53.232;-1.304;2023-01-19T06:21:30;7.82;;;2.88;;
73816;SDS011;62146;53.232;-1.304;2023-01-19T06:23:57;6.63;;;2.67;;
73816;SDS011;62146;53.232;-1.304;2023-01-19T06:26:24;7.07;;;2.88;;
73816;SDS011;62146;53.232;-1.304;2023-01-19T06:28:51;7.82;;;2.67;;
73816;SDS011;62146;53.232;-1.304;2023-01-19T06:31:18;7.93;;;2.65;;
73816;SDS011;62146;53.232;-1.304;2023-01-19T06:33:45;6.15;;;2.70;;
73816;SDS011;62146;53.232;-1.304;2023-01-19T06:36:12;6.23;;;3.10;;
73816;SDS011;62146;53.232;-1.304;2023-01-19T06:38:38;6.93;;;2.75;;
73816;SDS011;62146;53.232;-1.304;2023-01-19T06:41:05;7.60;;;3.15;;
73816;SDS011;62146;53.232;-1.304;2023-01-19T06:43:32;6.63;;;3.20;;
73816;SDS011;62146;53.232;-1.304;2023-01-19T06:45:58;6.13;;;2.80;;
73816;SDS011;62146;53.232;-1.304;2023-01-19T06:48:25;6.33;;;2.57;;
73816;SDS011;62146;53.232;-1.304;2023-01-19T06:50:53;7.35;;;2.85;;
73816;SDS011;62146;53.232;-1.304;2023-01-19T06:53:20;6.35;;;2.90;;
73816;SDS011;62146;53.232;-1.304;2023-01-19T06:55:47;7.32;;;3.30;;
73816;SDS011;62146;53.232;-1.304;2023-01-19T06:58:14;9.07;;;2.70;;
73816;SDS011;62146;53.232;-1.304;2023-01-19T07:00:40;7.00;;;3.03;;
73816;SDS011;62146;53.232;-1.304;2023-01-19T07:03:08;9.88;;;2.80;;
73816;SDS011;62146;53.232;-1.304;2023-01-19T07:05:43;7.93;;;3.15;;
73816;SDS011;62146;53.232;-1.304;2023-01-19T07:08:10;8.65;;;3.08;;
73816;SDS011;62146;53.232;-1.304;2023-01-19T07:10:36;8.65;;;3.15;;
73816;SDS011;62146;53.232;-1.304;2023-01-19T07:13:23;9.17;;;2.80;;
73816;SDS011;62146;53.232;-1.304;2023-01-19T07:15:50;6.43;;;3.13;;
73816;SDS011;62146;53.232;-1.304;2023-01-19T07:18:16;7.30;;;3.05;;
73816;SDS011;62146;53.232;-1.304;2023-01-19T07:20:43;7.70;;;3.20;;
73816;SDS011;62146;53.232;-1.304;2023-01-19T07:23:11;7.07;;;2.92;;
73816;SDS011;62146;53.232;-1.304;2023-01-19T07:25:38;9.77;;;3.27;;
73816;SDS011;62146;53.232;-1.304;2023-01-19T07:28:05;7.47;;;3.20;;
73816;SDS011;62146;53.232;-1.304;2023-01-19T07:30:31;7.57;;;3.42;;
73816;SDS011;62146;53.232;-1.304;2023-01-19T07:32:58;8.70;;;3.30;;
73816;SDS011;62146;53.232;-1.304;2023-01-19T07:35:25;6.72;;;3.00;;
73816;SDS011;62146;53.232;-1.304;2023-01-19T07:37:52;6.60;;;2.77;;
73816;SDS011;62146;53.232;-1.304;2023-01-19T07:40:18;7.07;;;2.80;;
73816;SDS011;62146;53.232;-1.304;2023-01-19T07:42:47;7.85;;;3.53;;
73816;SDS011;62146;53.232;-1.304;2023-01-19T07:45:15;7.22;;;2.80;;
73816;SDS011;62146;53.232;-1.304;2023-01-19T07:47:43;7.90;;;2.88;;
73816;SDS011;62146;53.232;-1.304;2023-01-19T07:50:11;7.13;;;3.00;;
73816;SDS011;62146;53.232;-1.304;2023-01-19T07:52:39;6.78;;;2.95;;
73816;SDS011;62146;53.232;-1.304;2023-01-19T07:55:06;8.63;;;3.55;;
73816;SDS011;62146;53.232;-1.304;2023-01-19T07:57:33;7.20;;;3.05;;
73816;SDS011;62146;53.232;-1.304;2023-01-19T08:00:01;8.07;;;2.90;;
73816;SDS011;62146;53.232;-1.304;2023-01-19T08:02:28;6.40;;;2.50;;
73816;SDS011;62146;53.232;-1.304;2023-01-19T08:04:56;8.27;;;3.47;;
73816;SDS011;62146;53.232;-1.304;2023-01-19T08:07:23;7.22;;;3.05;;
73816;SDS011;62146;53.232;-1.304;2023-01-19T08:09:50;10.68;;;3.20;;
73816;SDS011;62146;53.232;-1.304;2023-01-19T08:12:16;6.78;;;2.97;;
73816;SDS011;62146;53.232;-1.304;2023-01-19T08:14:43;7.43;;;2.90;;
73816;SDS011;62146;53.232;-1.304;2023-01-19T08:17:11;10.02;;;3.70;;
73816;SDS011;62146;53.232;-1.304;2023-01-19T08:19:39;9.80;;;3.13;;
73816;SDS011;62146;53.232;-1.304;2023-01-19T08:22:06;11.43;;;3.75;;
73816;SDS011;62146;53.232;-1.304;2023-01-19T08:24:33;14.07;;;3.63;;
73816;SDS011;62146;53.232;-1.304;2023-01-19T08:27:00;7.63;;;3.17;;
73816;SDS011;62146;53.232;-1.304;2023-01-19T08:29:28;12.35;;;3.50;;
73816;SDS011;62146;53.232;-1.304;2023-01-19T08:31:58;13.02;;;3.58;;
73816;SDS011;62146;53.232;-1.304;2023-01-19T08:34:27;15.13;;;3.20;;
73816;SDS011;62146;53.232;-1.304;2023-01-19T08:36:57;10.20;;;3.67;;
73816;SDS011;62146;53.232;-1.304;2023-01-19T08:39:24;10.30;;;3.50;;
73816;SDS011;62146;53.232;-1.304;2023-01-19T08:41:52;8.52;;;2.90;;
73816;SDS011;62146;53.232;-1.304;2023-01-19T08:44:19;9.27;;;3.47;;
73816;SDS011;62146;53.232;-1.304;2023-01-19T08:46:46;8.75;;;3.17;;
73816;SDS011;62146;53.232;-1.304;2023-01-19T08:49:13;8.43;;;3.53;;
73816;SDS011;62146;53.232;-1.304;2023-01-19T08:51:41;7.70;;;3.23;;
73816;SDS011;62146;53.232;-1.304;2023-01-19T08:54:07;9.65;;;3.45;;
73816;SDS011;62146;53.232;-1.304;2023-01-19T08:56:34;8.68;;;3.38;;
73816;SDS011;62146;53.232;-1.304;2023-01-19T08:59:01;10.02;;;3.05;;
73816;SDS011;62146;53.232;-1.304;2023-01-19T09:01:36;7.82;;;3.20;;
73816;SDS011;62146;53.232;-1.304;2023-01-19T09:04:03;8.50;;;3.17;;
73816;SDS011;62146;53.232;-1.304;2023-01-19T09:06:29;9.85;;;3.35;;
73816;SDS011;62146;53.232;-1.304;2023-01-19T09:08:56;6.50;;;2.90;;
73816;SDS011;62146;53.232;-1.304;2023-01-19T09:11:23;7.25;;;3.25;;
73816;SDS011;62146;53.232;-1.304;2023-01-19T09:13:49;9.30;;;3.95;;
73816;SDS011;62146;53.232;-1.304;2023-01-19T09:16:16;7.77;;;3.00;;
73816;SDS011;62146;53.232;-1.304;2023-01-19T09:18:43;7.63;;;3.03;;
73816;SDS011;62146;53.232;-1.304;2023-01-19T09:21:11;7.72;;;3.17;;
73816;SDS011;62146;53.232;-1.304;2023-01-19T09:23:38;8.25;;;3.38;;
73816;SDS011;62146;53.232;-1.304;2023-01-19T09:26:05;10.95;;;3.78;;
73816;SDS011;62146;53.232;-1.304;2023-01-19T09:28:32;11.40;;;3.60;;
73816;SDS011;62146;53.232;-1.304;2023-01-19T09:31:02;13.07;;;3.88;;
73816;SDS011;62146;53.232;-1.304;2023-01-19T09:33:30;14.13;;;4.53;;
73816;SDS011;62146;53.232;-1.304;2023-01-19T09:35:56;13.20;;;4.15;;
73816;SDS011;62146;53.232;-1.304;2023-01-19T09:38:23;10.88;;;4.07;;
73816;SDS011;62146;53.232;-1.304;2023-01-19T09:40:52;12.23;;;4.37;;
73816;SDS011;62146;53.232;-1.304;2023-01-19T09:43:34;10.05;;;3.75;;
73816;SDS011;62146;53.232;-1.304;2023-01-19T09:46:11;12.05;;;3.92;;
73816;SDS011;62146;53.232;-1.304;2023-01-19T09:48:54;11.90;;;3.50;;
73816;SDS011;62146;53.232;-1.304;2023-01-19T09:51:24;11.27;;;3.55;;
73816;SDS011;62146;53.232;-1.304;2023-01-19T09:56:38;10.38;;;3.20;;
73816;SDS011;62146;53.232;-1.304;2023-01-19T09:59:14;12.05;;;3.75;;
73816;SDS011;62146;53.232;-1.304;2023-01-19T10:04:31;10.98;;;3.92;;
73816;SDS011;62146;53.232;-1.304;2023-01-19T10:07:10;10.97;;;4.40;;
73816;SDS011;62146;53.232;-1.304;2023-01-19T10:10:01;12.88;;;4.20;;
73816;SDS011;62146;53.232;-1.304;2023-01-19T10:16:39;10.93;;;4.43;;
73816;SDS011;62146;53.232;-1.304;2023-01-19T10:18:58;11.65;;;4.10;;
73816;SDS011;62146;53.232;-1.304;2023-01-19T10:21:41;12.27;;;4.27;;
73816;SDS011;62146;53.232;-1.304;2023-01-19T10:26:53;10.90;;;4.40;;
73816;SDS011;62146;53.232;-1.304;2023-01-19T10:29:38;10.32;;;4.57;;
73816;SDS011;62146;53.232;-1.304;2023-01-19T10:34:51;9.53;;;4.23;;
73816;SDS011;62146;53.232;-1.304;2023-01-19T10:37:37;10.65;;;4.05;;
73816;SDS011;62146;53.232;-1.304;2023-01-19T10:42:34;10.02;;;4.03;;
73816;SDS011;62146;53.232;-1.304;2023-01-19T10:45:02;10.80;;;4.53;;
73816;SDS011;62146;53.232;-1.304;2023-01-19T10:47:32;11.67;;;4.37;;
73816;SDS011;62146;53.232;-1.304;2023-01-19T10:50:23;10.70;;;4.50;;
73816;SDS011;62146;53.232;-1.304;2023-01-19T10:52:49;9.93;;;4.50;;
73816;SDS011;62146;53.232;-1.304;2023-01-19T10:55:31;9.30;;;4.40;;
73816;SDS011;62146;53.232;-1.304;2023-01-19T10:58:01;9.45;;;4.38;;
73816;SDS011;62146;53.232;-1.304;2023-01-19T11:03:00;9.65;;;4.53;;
73816;SDS011;62146;53.232;-1.304;2023-01-19T11:05:28;10.30;;;4.47;;
73816;SDS011;62146;53.232;-1.304;2023-01-19T11:07:57;8.65;;;4.03;;
73816;SDS011;62146;53.232;-1.304;2023-01-19T11:10:25;10.13;;;4.53;;
73816;SDS011;62146;53.232;-1.304;2023-01-19T11:13:08;10.50;;;4.50;;
73816;SDS011;62146;53.232;-1.304;2023-01-19T11:15:41;9.60;;;4.30;;
73816;SDS011;62146;53.232;-1.304;2023-01-19T11:21:09;12.48;;;4.75;;
73816;SDS011;62146;53.232;-1.304;2023-01-19T11:23:45;10.88;;;4.40;;
73816;SDS011;62146;53.232;-1.304;2023-01-19T11:26:15;10.73;;;4.40;;
73816;SDS011;62146;53.232;-1.304;2023-01-19T11:28:53;10.10;;;3.97;;
73816;SDS011;62146;53.232;-1.304;2023-01-19T11:33:55;9.23;;;3.88;;
73816;SDS011;62146;53.232;-1.304;2023-01-19T11:36:25;8.30;;;3.65;;
73816;SDS011;62146;53.232;-1.304;2023-01-19T11:38:57;8.67;;;4.30;;
73816;SDS011;62146;53.232;-1.304;2023-01-19T11:44:38;9.18;;;3.78;;
73816;SDS011;62146;53.232;-1.304;2023-01-19T11:46:57;9.57;;;4.00;;
73816;SDS011;62146;53.232;-1.304;2023-01-19T11:54:46;6.75;;;3.42;;
73816;SDS011;62146;53.232;-1.304;2023-01-19T11:57:19;9.35;;;3.50;;
73816;SDS011;62146;53.232;-1.304;2023-01-19T11:59:46;9.05;;;3.90;;
73816;SDS011;62146;53.232;-1.304;2023-01-19T12:02:17;8.10;;;4.00;;
73816;SDS011;62146;53.232;-1.304;2023-01-19T12:04:51;7.03;;;2.80;;
73816;SDS011;62146;53.232;-1.304;2023-01-19T12:07:24;8.90;;;3.60;;
73816;SDS011;62146;53.232;-1.304;2023-01-19T12:09:57;6.60;;;3.40;;
73816;SDS011;62146;53.232;-1.304;2023-01-19T12:12:46;7.57;;;3.05;;
73816;SDS011;62146;53.232;-1.304;2023-01-19T12:17:59;6.20;;;2.80;;
73816;SDS011;62146;53.232;-1.304;2023-01-19T12:20:35;6.95;;;3.33;;
73816;SDS011;62146;53.232;-1.304;2023-01-19T12:28:11;6.50;;;2.90;;
73816;SDS011;62146;53.232;-1.304;2023-01-19T12:30:40;7.53;;;2.90;;
73816;SDS011;62146;53.232;-1.304;2023-01-19T12:42:01;5.50;;;2.70;;
73816;SDS011;62146;53.232;-1.304;2023-01-19T12:46:43;5.88;;;2.42;;
73816;SDS011;62146;53.232;-1.304;2023-01-19T12:51:48;5.38;;;2.28;;
73816;SDS011;62146;53.232;-1.304;2023-01-19T12:54:18;7.32;;;2.42;;
73816;SDS011;62146;53.232;-1.304;2023-01-19T12:57:01;5.67;;;2.40;;
73816;SDS011;62146;53.232;-1.304;2023-01-19T12:59:34;5.72;;;2.53;;
73816;SDS011;62146;53.232;-1.304;2023-01-19T13:13:42;4.30;;;1.77;;
73816;SDS011;62146;53.232;-1.304;2023-01-19T13:21:28;4.68;;;2.05;;
73816;SDS011;62146;53.232;-1.304;2023-01-19T13:23:57;5.30;;;2.03;;
73816;SDS011;62146;53.232;-1.304;2023-01-19T13:26:32;5.80;;;1.98;;
73816;SDS011;62146;53.232;-1.304;2023-01-19T13:29:02;5.95;;;2.13;;
73816;SDS011;62146;53.232;-1.304;2023-01-19T13:31:33;4.78;;;1.58;;
73816;SDS011;62146;53.232;-1.304;2023-01-19T13:34:01;4.28;;;1.73;;
73816;SDS011;62146;53.232;-1.304;2023-01-19T13:36:30;3.90;;;1.60;;
73816;SDS011;62146;53.232;-1.304;2023-01-19T13:39:12;6.50;;;1.95;;
73816;SDS011;62146;53.232;-1.304;2023-01-19T13:41:43;5.45;;;1.60;;
73816;SDS011;62146;53.232;-1.304;2023-01-19T13:46:49;5.10;;;1.90;;
73816;SDS011;62146;53.232;-1.304;2023-01-19T13:54:31;6.10;;;1.80;;
73816;SDS011;62146;53.232;-1.304;2023-01-19T13:56:58;4.65;;;1.90;;
73816;SDS011;62146;53.232;-1.304;2023-01-19T13:59:24;7.82;;;1.90;;
73816;SDS011;62146;53.232;-1.304;2023-01-19T14:01:51;4.77;;;1.70;;
73816;SDS011;62146;53.232;-1.304;2023-01-19T14:04:29;5.32;;;1.80;;
73816;SDS011;62146;53.232;-1.304;2023-01-19T14:07:01;7.25;;;1.90;;
73816;SDS011;62146;53.232;-1.304;2023-01-19T14:09:38;4.63;;;1.98;;
73816;SDS011;62146;53.232;-1.304;2023-01-19T14:12:07;5.50;;;2.17;;
73816;SDS011;62146;53.232;-1.304;2023-01-19T14:14:37;7.80;;;2.17;;
73816;SDS011;62146;53.232;-1.304;2023-01-19T14:17:05;8.57;;;2.15;;
73816;SDS011;62146;53.232;-1.304;2023-01-19T14:19:53;4.72;;;2.03;;
73816;SDS011;62146;53.232;-1.304;2023-01-19T14:22:38;5.85;;;2.20;;
73816;SDS011;62146;53.232;-1.304;2023-01-19T14:30:54;8.52;;;2.03;;
73816;SDS011;62146;53.232;-1.304;2023-01-19T14:33:41;5.63;;;2.10;;
73816;SDS011;62146;53.232;-1.304;2023-01-19T14:36:23;5.70;;;2.40;;
73816;SDS011;62146;53.232;-1.304;2023-01-19T14:38:53;5.78;;;1.80;;
73816;SDS011;62146;53.232;-1.304;2023-01-19T14:41:45;5.87;;;2.30;;
73816;SDS011;62146;53.232;-1.304;2023-01-19T14:47:02;5.43;;;2.22;;
73816;SDS011;62146;53.232;-1.304;2023-01-19T14:51:58;4.68;;;2.03;;
73816;SDS011;62146;53.232;-1.304;2023-01-19T14:54:34;6.33;;;2.20;;
73816;SDS011;62146;53.232;-1.304;2023-01-19T14:57:09;5.65;;;2.03;;
73816;SDS011;62146;53.232;-1.304;2023-01-19T14:59:37;6.10;;;2.28;;
73816;SDS011;62146;53.232;-1.304;2023-01-19T15:02:04;6.63;;;1.95;;
73816;SDS011;62146;53.232;-1.304;2023-01-19T15:04:31;6.22;;;2.40;;
73816;SDS011;62146;53.232;-1.304;2023-01-19T15:06:58;6.50;;;2.40;;
73816;SDS011;62146;53.232;-1.304;2023-01-19T15:09:24;6.35;;;2.45;;
73816;SDS011;62146;53.232;-1.304;2023-01-19T15:11:51;7.22;;;2.60;;
73816;SDS011;62146;53.232;-1.304;2023-01-19T15:14:18;7.97;;;2.80;;
73816;SDS011;62146;53.232;-1.304;2023-01-19T15:16:46;8.13;;;2.78;;
73816;SDS011;62146;53.232;-1.304;2023-01-19T15:19:14;7.37;;;2.97;;
73816;SDS011;62146;53.232;-1.304;2023-01-19T15:21:42;7.55;;;2.70;;
73816;SDS011;62146;53.232;-1.304;2023-01-19T15:24:10;9.02;;;2.95;;
73816;SDS011;62146;53.232;-1.304;2023-01-19T15:26:38;7.65;;;3.10;;
73816;SDS011;62146;53.232;-1.304;2023-01-19T15:29:19;8.07;;;3.20;;
73816;SDS011;62146;53.232;-1.304;2023-01-19T15:31:51;7.10;;;3.20;;
73816;SDS011;62146;53.232;-1.304;2023-01-19T15:34:18;8.18;;;3.03;;
73816;SDS011;62146;53.232;-1.304;2023-01-19T15:36:44;7.10;;;2.60;;
73816;SDS011;62146;53.232;-1.304;2023-01-19T15:39:11;6.45;;;2.88;;
73816;SDS011;62146;53.232;-1.304;2023-01-19T15:41:38;8.60;;;3.20;;
73816;SDS011;62146;53.232;-1.304;2023-01-19T15:44:05;7.43;;;2.70;;
73816;SDS011;62146;53.232;-1.304;2023-01-19T15:46:35;8.70;;;3.40;;
73816;SDS011;62146;53.232;-1.304;2023-01-19T15:49:02;7.70;;;3.10;;
73816;SDS011;62146;53.232;-1.304;2023-01-19T15:51:30;8.10;;;3.47;;
73816;SDS011;62146;53.232;-1.304;2023-01-19T15:53:58;10.02;;;3.95;;
73816;SDS011;62146;53.232;-1.304;2023-01-19T15:56:28;7.47;;;3.80;;
73816;SDS011;62146;53.232;-1.304;2023-01-19T15:58:56;19.05;;;6.55;;
73816;SDS011;62146;53.232;-1.304;2023-01-19T16:01:24;39.63;;;13.73;;
73816;SDS011;62146;53.232;-1.304;2023-01-19T16:03:58;32.03;;;11.63;;
73816;SDS011;62146;53.232;-1.304;2023-01-19T16:06:26;33.70;;;13.77;;
73816;SDS011;62146;53.232;-1.304;2023-01-19T16:08:54;30.07;;;11.50;;
73816;SDS011;62146;53.232;-1.304;2023-01-19T16:11:25;40.53;;;13.65;;
73816;SDS011;62146;53.232;-1.304;2023-01-19T16:13:53;49.05;;;17.52;;
73816;SDS011;62146;53.232;-1.304;2023-01-19T16:16:21;42.95;;;15.27;;
73816;SDS011;62146;53.232;-1.304;2023-01-19T16:18:49;38.95;;;13.32;;
73816;SDS011;62146;53.232;-1.304;2023-01-19T16:21:16;38.97;;;12.93;;
73816;SDS011;62146;53.232;-1.304;2023-01-19T16:23:43;33.53;;;11.68;;
73816;SDS011;62146;53.232;-1.304;2023-01-19T16:28:55;30.50;;;12.05;;
73816;SDS011;62146;53.232;-1.304;2023-01-19T16:31:25;32.42;;;11.20;;
73816;SDS011;62146;53.232;-1.304;2023-01-19T16:33:52;33.33;;;10.83;;
73816;SDS011;62146;53.232;-1.304;2023-01-19T16:36:23;36.60;;;12.15;;
73816;SDS011;62146;53.232;-1.304;2023-01-19T16:38:57;35.95;;;12.77;;
73816;SDS011;62146;53.232;-1.304;2023-01-19T16:41:24;33.65;;;11.18;;